createdAt,value
2019-05-21T00:04:50.250Z,12.57
2019-05-21T00:09:53.592Z,12.62
2019-05-21T00:14:57.045Z,12.68
2019-05-21T00:20:00.385Z,12.65
2019-05-21T00:25:04.788Z,12.57
2019-05-21T00:30:44.624Z,12.62
2019-05-21T00:36:26.534Z,12.61
2019-05-21T00:42:00.923Z,12.69
2019-05-21T00:47:05.955Z,12.69
2019-05-21T00:52:09.684Z,12.74
2019-05-21T00:57:13.206Z,12.73
2019-05-21T01:02:16.611Z,12.68
2019-05-21T01:07:19.971Z,12.75
2019-05-21T01:12:23.327Z,12.71
2019-05-21T01:17:26.725Z,12.72
2019-05-21T01:22:30.066Z,12.73
2019-05-21T01:27:33.529Z,12.73
2019-05-21T01:32:36.862Z,12.72
2019-05-21T01:37:40.371Z,12.81
2019-05-21T01:42:43.707Z,12.85
2019-05-21T01:47:47.147Z,12.84
2019-05-21T01:52:50.541Z,12.84
2019-05-21T01:57:53.840Z,12.81
2019-05-21T02:02:57.197Z,12.85
2019-05-21T02:08:00.599Z,12.82
2019-05-21T02:13:05.061Z,12.84
2019-05-21T02:18:08.449Z,12.83
2019-05-21T02:23:11.806Z,12.83
2019-05-21T02:28:15.142Z,12.86
2019-05-21T02:33:18.599Z,12.82
2019-05-21T02:38:22.004Z,12.78
2019-05-21T02:43:25.443Z,12.81
2019-05-21T02:48:28.781Z,12.80
2019-05-21T02:53:34.553Z,12.81
2019-05-21T02:58:38.182Z,12.82
2019-05-21T03:03:41.643Z,12.80
2019-05-21T03:08:44.959Z,12.80
2019-05-21T03:13:48.371Z,12.76
2019-05-21T03:18:51.882Z,12.76
2019-05-21T03:23:55.235Z,12.78
2019-05-21T03:28:58.600Z,12.79
2019-05-21T03:34:01.933Z,12.81
2019-05-21T03:39:05.566Z,12.83
2019-05-21T03:44:08.960Z,12.83
2019-05-21T03:49:12.228Z,12.84
2019-05-21T03:54:15.652Z,12.84
2019-05-21T03:59:19.017Z,12.81
2019-05-21T04:04:22.507Z,12.78
2019-05-21T04:09:25.861Z,12.78
2019-05-21T04:14:43.087Z,12.83
2019-05-21T04:19:48.113Z,12.80
2019-05-21T04:24:51.582Z,12.87
2019-05-21T04:29:55.049Z,12.81
2019-05-21T04:34:58.398Z,12.81
2019-05-21T04:40:01.823Z,12.85
2019-05-21T04:45:08.433Z,12.87
2019-05-21T04:50:11.793Z,12.87
2019-05-21T04:55:15.296Z,12.89
2019-05-21T05:00:18.721Z,12.95
2019-05-21T05:05:22.120Z,13.01
2019-05-21T05:10:25.537Z,13.04
2019-05-21T05:15:28.937Z,13.05
2019-05-21T05:20:32.288Z,13.13
2019-05-21T05:25:35.653Z,13.23
2019-05-21T05:30:39.142Z,13.31
2019-05-21T05:35:43.467Z,13.30
2019-05-21T05:40:46.806Z,13.37
2019-05-21T05:45:52.215Z,13.27
2019-05-21T05:50:57.218Z,13.45
2019-05-21T05:56:00.680Z,13.37
2019-05-21T06:01:04.058Z,13.34
2019-05-21T06:06:07.421Z,13.45
2019-05-21T06:11:10.763Z,13.35
2019-05-21T06:16:14.171Z,13.34
2019-05-21T06:21:17.635Z,13.33
2019-05-21T06:26:21.069Z,13.32
2019-05-21T06:31:24.691Z,13.32
2019-05-21T06:36:28.233Z,13.17
2019-05-21T06:41:31.787Z,13.01
2019-05-21T06:46:35.207Z,13.08
2019-05-21T06:51:39.485Z,13.07
2019-05-21T06:56:42.838Z,13.11
2019-05-21T07:01:46.167Z,13.15
2019-05-21T07:06:49.761Z,13.23
2019-05-21T07:11:53.126Z,13.29
2019-05-21T07:16:56.561Z,13.36
2019-05-21T07:22:12.299Z,13.36
2019-05-21T07:27:05.152Z,13.42
2019-05-21T07:32:08.528Z,13.33
2019-05-21T07:37:11.946Z,13.43
2019-05-21T07:42:15.299Z,13.28
2019-05-21T07:47:18.648Z,13.31
2019-05-21T07:52:21.975Z,13.30
2019-05-21T07:57:25.338Z,13.27
2019-05-21T08:02:28.687Z,13.57
2019-05-21T08:07:32.008Z,13.73
2019-05-21T08:12:39.281Z,13.84
2019-05-21T08:17:40.492Z,13.93
2019-05-21T08:22:43.905Z,13.62
2019-05-21T08:27:47.239Z,13.62
2019-05-21T08:32:50.624Z,13.67
2019-05-21T08:37:53.996Z,13.70
2019-05-21T08:42:57.365Z,13.57
2019-05-21T08:48:00.678Z,13.59
2019-05-21T08:53:04.017Z,13.49
2019-05-21T08:58:07.951Z,13.46
2019-05-21T09:03:11.434Z,13.81
2019-05-21T09:08:14.885Z,13.65
2019-05-21T09:13:18.360Z,13.62
2019-05-21T09:18:21.837Z,13.65
2019-05-21T09:23:25.278Z,13.79
2019-05-21T09:28:28.725Z,13.96
2019-05-21T09:33:32.062Z,13.83
2019-05-21T09:38:35.430Z,13.72
2019-05-21T09:43:38.777Z,13.83
2019-05-21T09:48:42.207Z,13.91
2019-05-21T09:53:45.542Z,13.89
2019-05-21T09:58:49.095Z,13.94
2019-05-21T10:03:54.102Z,13.98
2019-05-21T10:08:57.459Z,14.13
2019-05-21T10:14:00.806Z,13.89
2019-05-21T10:19:04.197Z,14.02
2019-05-21T10:24:07.695Z,13.99
2019-05-21T10:29:11.056Z,13.93
2019-05-21T10:34:14.396Z,14.40
2019-05-21T10:39:18.108Z,14.19
2019-05-21T10:44:21.377Z,14.32
2019-05-21T10:49:24.736Z,14.57
2019-05-21T10:54:28.077Z,14.32
2019-05-21T10:59:31.402Z,14.53
2019-05-21T11:04:39.139Z,14.51
2019-05-21T11:09:43.662Z,14.53
2019-05-21T11:14:47.125Z,14.48
2019-05-21T11:19:50.570Z,14.68
2019-05-21T11:24:53.860Z,14.69
2019-05-21T11:29:57.168Z,14.66
2019-05-21T11:35:00.602Z,14.69
2019-05-21T11:40:08.368Z,14.72
2019-05-21T11:45:10.477Z,14.59
2019-05-21T11:50:18.191Z,14.60
2019-05-21T11:55:21.522Z,14.66
2019-05-21T12:00:28.133Z,14.74
2019-05-21T12:05:31.479Z,14.92
2019-05-21T12:10:34.845Z,14.84
2019-05-21T12:15:38.185Z,15.21
2019-05-21T12:20:41.536Z,14.91
2019-05-21T12:25:44.958Z,14.82
2019-05-21T12:30:48.328Z,15.26
2019-05-21T12:35:51.686Z,15.73
2019-05-21T12:40:55.070Z,15.72
2019-05-21T12:45:58.382Z,15.77
2019-05-21T12:51:01.718Z,15.88
2019-05-21T12:56:05.064Z,15.90
2019-05-21T13:01:08.391Z,15.82
2019-05-21T13:06:11.933Z,16.04
2019-05-21T13:11:15.258Z,16.04
2019-05-21T13:16:18.614Z,15.60
2019-05-21T13:21:21.930Z,15.92
2019-05-21T13:26:25.285Z,15.88
2019-05-21T13:31:28.695Z,15.55
2019-05-21T13:36:32.158Z,15.37
2019-05-21T13:41:35.502Z,15.30
2019-05-21T13:46:38.872Z,15.49
2019-05-21T13:51:42.198Z,15.54
2019-05-21T13:56:45.917Z,15.59
2019-05-21T14:01:49.328Z,15.57
2019-05-21T14:06:52.721Z,15.57
2019-05-21T14:11:57.057Z,15.70
2019-05-21T14:17:00.397Z,15.86
2019-05-21T14:22:03.804Z,15.91
2019-05-21T14:27:07.235Z,15.71
2019-05-21T14:32:10.635Z,15.88
2019-05-21T14:37:14.044Z,16.05
2019-05-21T14:42:17.378Z,16.12
2019-05-21T14:47:20.780Z,16.21
2019-05-21T14:52:24.213Z,16.21
2019-05-21T14:57:27.658Z,16.21
2019-05-21T15:02:30.999Z,16.24
2019-05-21T15:07:34.505Z,16.18
2019-05-21T15:12:37.846Z,16.04
2019-05-21T15:17:41.284Z,16.04
2019-05-21T15:22:44.692Z,15.81
2019-05-21T15:27:48.021Z,15.91
2019-05-21T15:32:52.320Z,15.51
2019-05-21T15:37:55.714Z,15.52
2019-05-21T15:42:59.190Z,14.86
2019-05-21T15:48:02.515Z,14.73
2019-05-21T15:53:05.876Z,14.75
2019-05-21T15:58:09.225Z,14.85
2019-05-21T16:03:12.586Z,14.65
2019-05-21T16:08:15.942Z,14.42
2019-05-21T16:13:19.292Z,14.27
2019-05-21T16:18:22.676Z,14.35
2019-05-21T16:23:26.055Z,14.14
2019-05-21T16:28:29.390Z,14.21
2019-05-21T16:33:33.011Z,14.24
2019-05-21T16:38:36.383Z,14.33
2019-05-21T16:43:40.033Z,14.15
2019-05-21T16:48:43.468Z,14.21
2019-05-21T16:53:46.831Z,14.21
2019-05-21T16:58:50.294Z,14.30
2019-05-21T17:03:59.764Z,14.37
2019-05-21T17:08:58.759Z,14.48
2019-05-21T17:14:02.075Z,14.54
2019-05-21T17:19:05.410Z,14.38
2019-05-21T17:24:08.753Z,14.34
2019-05-21T17:29:12.119Z,14.31
2019-05-21T17:34:15.473Z,14.36
2019-05-21T17:39:18.893Z,14.28
2019-05-21T17:44:24.881Z,14.29
2019-05-21T17:49:27.328Z,14.26
2019-05-21T17:54:30.768Z,14.19
2019-05-21T17:59:34.176Z,14.17
2019-05-21T18:04:38.432Z,14.15
2019-05-21T18:09:42.467Z,14.10
2019-05-21T18:14:46.034Z,14.07
2019-05-21T18:19:50.943Z,14.07
2019-05-21T18:24:55.320Z,14.07
2019-05-21T18:29:59.051Z,14.08
2019-05-21T18:35:02.423Z,14.04
2019-05-21T18:40:08.161Z,14.04
2019-05-21T18:45:11.703Z,14.03
2019-05-21T18:50:15.950Z,13.99
2019-05-21T18:55:19.363Z,14.03
2019-05-21T19:00:22.948Z,14.01
2019-05-21T19:05:26.410Z,14.04
2019-05-21T19:10:29.787Z,14.04
2019-05-21T19:15:33.122Z,14.02
2019-05-21T19:20:36.447Z,14.00
2019-05-21T19:25:39.816Z,13.98
2019-05-21T19:30:43.156Z,13.98
2019-05-21T19:35:46.536Z,13.94
2019-05-21T19:40:50.065Z,13.94
2019-05-21T19:45:54.409Z,13.94
2019-05-21T19:51:00.435Z,13.92
2019-05-21T19:56:03.886Z,13.87
2019-05-21T20:01:08.364Z,13.89
2019-05-21T20:06:12.954Z,13.86
2019-05-21T20:11:17.499Z,13.81
2019-05-21T20:16:22.091Z,13.77
2019-05-21T20:21:25.877Z,13.75
2019-05-21T20:26:30.861Z,13.73
2019-05-21T20:31:34.594Z,13.72
2019-05-21T20:36:40.768Z,13.67
2019-05-21T20:41:44.180Z,13.66
2019-05-21T20:46:48.247Z,13.60
2019-05-21T20:51:51.663Z,13.59
2019-05-21T20:56:55.139Z,13.56
2019-05-21T21:01:59.102Z,13.51
2019-05-21T21:07:03.884Z,13.52
2019-05-21T21:12:08.861Z,13.50
2019-05-21T21:17:14.548Z,13.49
2019-05-21T21:22:18.130Z,13.49
2019-05-21T21:27:21.936Z,13.45
2019-05-21T21:32:25.438Z,13.44
2019-05-21T21:37:28.797Z,13.43
2019-05-21T21:42:32.515Z,13.42
2019-05-21T21:47:36.444Z,13.40
2019-05-21T21:52:40.621Z,13.38
2019-05-21T21:57:43.973Z,13.37
2019-05-21T22:02:47.381Z,13.34
2019-05-21T22:07:50.909Z,13.35
2019-05-21T22:12:54.355Z,13.31
2019-05-21T22:17:58.243Z,13.25
2019-05-21T22:23:01.651Z,13.22
2019-05-21T22:28:05.065Z,13.15
2019-05-21T22:33:08.656Z,13.16
2019-05-21T22:38:12.118Z,13.14
2019-05-21T22:43:15.481Z,13.08
2019-05-21T22:48:18.798Z,13.06
2019-05-21T22:53:22.144Z,12.99
2019-05-21T22:58:25.556Z,12.97
2019-05-21T23:03:29.436Z,12.94
2019-05-21T23:08:33.251Z,12.92
2019-05-21T23:13:36.832Z,12.91
2019-05-21T23:18:40.180Z,12.88
2019-05-21T23:23:44.724Z,12.85
2019-05-21T23:28:48.540Z,12.83
2019-05-21T23:33:51.960Z,12.79
2019-05-21T23:38:56.233Z,12.75
2019-05-21T23:44:00.598Z,12.72
2019-05-21T23:49:04.052Z,12.67
2019-05-21T23:54:07.674Z,12.65
2019-05-21T23:59:11.034Z,12.64
